sensor_id;sensor_type;location;lat;lon;timestamp;temperature;humidity
7192;DHT22;3637;51.494;11.958;2023-05-10T00:01:27;13.10;97.30
7192;DHT22;3637;51.494;11.958;2023-05-10T00:04:29;13.00;97.60
7192;DHT22;3637;51.494;11.958;2023-05-10T00:07:31;13.50;97.90
7192;DHT22;3637;51.494;11.958;2023-05-10T00:10:34;13.00;97.70
7192;DHT22;3637;51.494;11.958;2023-05-10T00:13:37;12.90;98.00
7192;DHT22;3637;51.494;11.958;2023-05-10T00:16:39;13.00;98.10
7192;DHT22;3637;51.494;11.958;2023-05-10T00:19:42;12.80;98.20
7192;DHT22;3637;51.494;11.958;2023-05-10T00:22:43;12.80;98.50
7192;DHT22;3637;51.494;11.958;2023-05-10T00:25:47;12.70;98.60
7192;DHT22;3637;51.494;11.958;2023-05-10T00:28:48;12.60;98.70
7192;DHT22;3637;51.494;11.958;2023-05-10T00:31:50;12.70;99.10
7192;DHT22;3637;51.494;11.958;2023-05-10T00:34:55;13.00;99.10
7192;DHT22;3637;51.494;11.958;2023-05-10T00:38:00;12.90;99.30
7192;DHT22;3637;51.494;11.958;2023-05-10T00:41:04;12.60;99.20
7192;DHT22;3637;51.494;11.958;2023-05-10T00:44:05;12.80;99.30
7192;DHT22;3637;51.494;11.958;2023-05-10T00:47:08;12.60;99.30
7192;DHT22;3637;51.494;11.958;2023-05-10T00:50:10;12.60;99.50
7192;DHT22;3637;51.494;11.958;2023-05-10T00:53:12;12.50;99.70
7192;DHT22;3637;51.494;11.958;2023-05-10T00:56:15;12.50;99.80
7192;DHT22;3637;51.494;11.958;2023-05-10T00:59:17;12.30;99.80
7192;DHT22;3637;51.494;11.958;2023-05-10T01:02:19;12.80;99.90
7192;DHT22;3637;51.494;11.958;2023-05-10T01:05:21;12.40;99.90
7192;DHT22;3637;51.494;11.958;2023-05-10T01:08:23;12.40;99.90
7192;DHT22;3637;51.494;11.958;2023-05-10T01:11:26;12.40;99.90
7192;DHT22;3637;51.494;11.958;2023-05-10T01:14:29;12.30;99.90
7192;DHT22;3637;51.494;11.958;2023-05-10T01:17:32;12.20;99.90
7192;DHT22;3637;51.494;11.958;2023-05-10T01:20:41;12.20;99.90
7192;DHT22;3637;51.494;11.958;2023-05-10T01:28:02;12.20;99.90
7192;DHT22;3637;51.494;11.958;2023-05-10T01:31:22;12.10;99.90
7192;DHT22;3637;51.494;11.958;2023-05-10T01:34:32;12.10;99.90
7192;DHT22;3637;51.494;11.958;2023-05-10T01:37:40;12.00;99.90
7192;DHT22;3637;51.494;11.958;2023-05-10T01:40:51;12.10;99.90
7192;DHT22;3637;51.494;11.958;2023-05-10T01:43:59;12.00;99.90
7192;DHT22;3637;51.494;11.958;2023-05-10T01:47:07;11.80;99.90
7192;DHT22;3637;51.494;11.958;2023-05-10T01:50:14;12.00;99.90
7192;DHT22;3637;51.494;11.958;2023-05-10T01:53:18;12.00;99.90
7192;DHT22;3637;51.494;11.958;2023-05-10T01:56:24;12.00;99.90
7192;DHT22;3637;51.494;11.958;2023-05-10T01:59:30;12.00;99.90
7192;DHT22;3637;51.494;11.958;2023-05-10T02:02:37;12.00;99.90
7192;DHT22;3637;51.494;11.958;2023-05-10T02:05:41;12.00;99.90
7192;DHT22;3637;51.494;11.958;2023-05-10T02:08:45;12.20;99.90
7192;DHT22;3637;51.494;11.958;2023-05-10T02:11:49;11.90;99.90
7192;DHT22;3637;51.494;11.958;2023-05-10T02:14:52;11.90;99.90
7192;DHT22;3637;51.494;11.958;2023-05-10T02:17:55;12.10;99.90
7192;DHT22;3637;51.494;11.958;2023-05-10T02:20:59;11.80;99.90
7192;DHT22;3637;51.494;11.958;2023-05-10T02:24:03;11.80;99.90
7192;DHT22;3637;51.494;11.958;2023-05-10T02:27:06;11.80;99.90
7192;DHT22;3637;51.494;11.958;2023-05-10T02:30:09;12.10;99.90
7192;DHT22;3637;51.494;11.958;2023-05-10T02:33:11;11.80;99.90
7192;DHT22;3637;51.494;11.958;2023-05-10T02:36:15;11.80;99.90
7192;DHT22;3637;51.494;11.958;2023-05-10T02:39:19;11.70;99.90
7192;DHT22;3637;51.494;11.958;2023-05-10T02:42:24;11.80;99.90
7192;DHT22;3637;51.494;11.958;2023-05-10T02:45:30;11.60;99.90
7192;DHT22;3637;51.494;11.958;2023-05-10T02:48:32;11.90;99.90
7192;DHT22;3637;51.494;11.958;2023-05-10T02:51:37;11.60;99.90
7192;DHT22;3637;51.494;11.958;2023-05-10T02:54:45;11.60;99.90
7192;DHT22;3637;51.494;11.958;2023-05-10T02:57:51;11.60;99.90
7192;DHT22;3637;51.494;11.958;2023-05-10T03:00:53;11.60;99.90
7192;DHT22;3637;51.494;11.958;2023-05-10T03:03:55;11.60;99.90
7192;DHT22;3637;51.494;11.958;2023-05-10T03:07:02;11.60;99.90
7192;DHT22;3637;51.494;11.958;2023-05-10T03:10:05;11.70;99.90
7192;DHT22;3637;51.494;11.958;2023-05-10T03:13:13;11.40;99.90
7192;DHT22;3637;51.494;11.958;2023-05-10T03:16:25;11.50;99.90
7192;DHT22;3637;51.494;11.958;2023-05-10T03:19:32;11.50;99.90
7192;DHT22;3637;51.494;11.958;2023-05-10T03:22:38;11.50;99.90
7192;DHT22;3637;51.494;11.958;2023-05-10T03:25:42;11.40;99.90
7192;DHT22;3637;51.494;11.958;2023-05-10T03:28:45;11.60;99.90
7192;DHT22;3637;51.494;11.958;2023-05-10T03:31:49;11.40;99.90
7192;DHT22;3637;51.494;11.958;2023-05-10T03:34:51;11.40;99.90
7192;DHT22;3637;51.494;11.958;2023-05-10T03:37:54;11.30;99.90
7192;DHT22;3637;51.494;11.958;2023-05-10T03:40:56;12.10;99.90
7192;DHT22;3637;51.494;11.958;2023-05-10T03:43:59;11.30;99.90
7192;DHT22;3637;51.494;11.958;2023-05-10T03:47:01;11.40;99.90
7192;DHT22;3637;51.494;11.958;2023-05-10T03:50:03;11.40;99.90
7192;DHT22;3637;51.494;11.958;2023-05-10T03:53:06;11.30;99.90
7192;DHT22;3637;51.494;11.958;2023-05-10T03:56:08;11.40;99.90
7192;DHT22;3637;51.494;11.958;2023-05-10T03:59:19;11.40;99.90
7192;DHT22;3637;51.494;11.958;2023-05-10T04:02:21;11.40;99.90
7192;DHT22;3637;51.494;11.958;2023-05-10T04:05:23;11.40;99.90
7192;DHT22;3637;51.494;11.958;2023-05-10T04:08:27;11.50;99.90
7192;DHT22;3637;51.494;11.958;2023-05-10T04:11:28;11.50;99.90
7192;DHT22;3637;51.494;11.958;2023-05-10T04:14:30;11.70;99.90
7192;DHT22;3637;51.494;11.958;2023-05-10T04:17:32;11.60;99.90
7192;DHT22;3637;51.494;11.958;2023-05-10T04:20:34;11.50;99.90
7192;DHT22;3637;51.494;11.958;2023-05-10T04:23:37;11.60;99.90
7192;DHT22;3637;51.494;11.958;2023-05-10T04:26:39;11.60;99.90
7192;DHT22;3637;51.494;11.958;2023-05-10T04:29:41;12.00;99.90
7192;DHT22;3637;51.494;11.958;2023-05-10T04:32:43;11.80;99.90
7192;DHT22;3637;51.494;11.958;2023-05-10T04:35:45;11.80;99.90
7192;DHT22;3637;51.494;11.958;2023-05-10T04:38:48;11.90;99.90
7192;DHT22;3637;51.494;11.958;2023-05-10T04:41:59;11.90;99.90
7192;DHT22;3637;51.494;11.958;2023-05-10T04:45:00;12.00;99.90
7192;DHT22;3637;51.494;11.958;2023-05-10T04:48:03;12.10;99.90
7192;DHT22;3637;51.494;11.958;2023-05-10T04:51:05;12.20;99.90
7192;DHT22;3637;51.494;11.958;2023-05-10T04:54:08;12.20;99.90
7192;DHT22;3637;51.494;11.958;2023-05-10T04:57:10;12.30;99.90
7192;DHT22;3637;51.494;11.958;2023-05-10T05:00:13;12.70;99.90
7192;DHT22;3637;51.494;11.958;2023-05-10T05:03:15;12.40;99.90
7192;DHT22;3637;51.494;11.958;2023-05-10T05:06:17;12.60;99.90
7192;DHT22;3637;51.494;11.958;2023-05-10T05:09:20;12.40;99.90
7192;DHT22;3637;51.494;11.958;2023-05-10T05:12:22;12.60;99.90
7192;DHT22;3637;51.494;11.958;2023-05-10T05:15:23;12.60;99.90
7192;DHT22;3637;51.494;11.958;2023-05-10T05:18:25;14.20;99.90
7192;DHT22;3637;51.494;11.958;2023-05-10T05:21:27;12.90;99.90
7192;DHT22;3637;51.494;11.958;2023-05-10T05:24:35;13.10;99.90
7192;DHT22;3637;51.494;11.958;2023-05-10T05:27:38;12.70;99.90
7192;DHT22;3637;51.494;11.958;2023-05-10T05:30:40;13.00;99.90
7192;DHT22;3637;51.494;11.958;2023-05-10T05:33:42;12.90;99.90
7192;DHT22;3637;51.494;11.958;2023-05-10T05:36:43;13.50;99.90
7192;DHT22;3637;51.494;11.958;2023-05-10T05:39:47;13.10;99.90
7192;DHT22;3637;51.494;11.958;2023-05-10T05:42:49;13.10;99.90
7192;DHT22;3637;51.494;11.958;2023-05-10T05:45:52;13.10;99.90
7192;DHT22;3637;51.494;11.958;2023-05-10T05:48:54;13.20;99.90
7192;DHT22;3637;51.494;11.958;2023-05-10T05:51:58;13.30;99.90
7192;DHT22;3637;51.494;11.958;2023-05-10T05:55:02;13.90;99.90
7192;DHT22;3637;51.494;11.958;2023-05-10T05:58:04;13.40;99.90
7192;DHT22;3637;51.494;11.958;2023-05-10T06:01:06;14.80;99.90
7192;DHT22;3637;51.494;11.958;2023-05-10T06:04:08;13.40;99.90
7192;DHT22;3637;51.494;11.958;2023-05-10T06:07:10;13.80;99.90
7192;DHT22;3637;51.494;11.958;2023-05-10T06:10:14;13.10;99.90
7192;DHT22;3637;51.494;11.958;2023-05-10T06:13:15;14.30;99.90
7192;DHT22;3637;51.494;11.958;2023-05-10T06:16:17;13.80;99.90
7192;DHT22;3637;51.494;11.958;2023-05-10T06:19:19;13.90;99.90
7192;DHT22;3637;51.494;11.958;2023-05-10T06:22:21;14.00;99.90
7192;DHT22;3637;51.494;11.958;2023-05-10T06:25:24;14.10;99.90
7192;DHT22;3637;51.494;11.958;2023-05-10T06:28:26;14.10;99.90
7192;DHT22;3637;51.494;11.958;2023-05-10T06:31:28;14.20;99.90
7192;DHT22;3637;51.494;11.958;2023-05-10T06:34:30;14.20;99.90
7192;DHT22;3637;51.494;11.958;2023-05-10T06:37:32;14.20;99.90
7192;DHT22;3637;51.494;11.958;2023-05-10T06:40:35;14.30;99.90
7192;DHT22;3637;51.494;11.958;2023-05-10T06:43:37;14.40;99.90
7192;DHT22;3637;51.494;11.958;2023-05-10T06:46:40;14.40;99.90
7192;DHT22;3637;51.494;11.958;2023-05-10T06:49:42;14.80;99.90
7192;DHT22;3637;51.494;11.958;2023-05-10T06:52:44;14.60;99.90
7192;DHT22;3637;51.494;11.958;2023-05-10T06:55:47;14.80;99.90
7192;DHT22;3637;51.494;11.958;2023-05-10T06:58:50;14.70;99.90
7192;DHT22;3637;51.494;11.958;2023-05-10T07:01:52;14.80;99.90
7192;DHT22;3637;51.494;11.958;2023-05-10T07:04:54;14.80;99.90
7192;DHT22;3637;51.494;11.958;2023-05-10T07:07:56;15.00;99.90
7192;DHT22;3637;51.494;11.958;2023-05-10T07:11:02;14.80;99.90
7192;DHT22;3637;51.494;11.958;2023-05-10T07:14:04;14.80;99.90
7192;DHT22;3637;51.494;11.958;2023-05-10T07:17:06;14.80;99.90
7192;DHT22;3637;51.494;11.958;2023-05-10T07:20:09;14.80;99.90
7192;DHT22;3637;51.494;11.958;2023-05-10T07:23:11;14.60;99.90
7192;DHT22;3637;51.494;11.958;2023-05-10T07:26:14;15.30;99.90
7192;DHT22;3637;51.494;11.958;2023-05-10T07:29:16;15.60;99.90
7192;DHT22;3637;51.494;11.958;2023-05-10T07:32:17;14.60;99.90
7192;DHT22;3637;51.494;11.958;2023-05-10T07:35:19;15.00;99.90
7192;DHT22;3637;51.494;11.958;2023-05-10T07:38:21;14.90;99.90
7192;DHT22;3637;51.494;11.958;2023-05-10T07:41:24;14.40;99.90
7192;DHT22;3637;51.494;11.958;2023-05-10T07:44:26;14.80;99.90
7192;DHT22;3637;51.494;11.958;2023-05-10T07:47:28;14.90;99.90
7192;DHT22;3637;51.494;11.958;2023-05-10T07:50:32;14.90;99.90
7192;DHT22;3637;51.494;11.958;2023-05-10T07:53:34;15.00;99.90
7192;DHT22;3637;51.494;11.958;2023-05-10T07:56:37;14.80;99.90
7192;DHT22;3637;51.494;11.958;2023-05-10T07:59:40;15.30;99.90
7192;DHT22;3637;51.494;11.958;2023-05-10T08:02:42;15.10;99.90
7192;DHT22;3637;51.494;11.958;2023-05-10T08:05:44;15.10;99.90
7192;DHT22;3637;51.494;11.958;2023-05-10T08:08:46;14.80;99.90
7192;DHT22;3637;51.494;11.958;2023-05-10T08:11:51;14.80;99.90
7192;DHT22;3637;51.494;11.958;2023-05-10T08:14:53;14.90;99.90
7192;DHT22;3637;51.494;11.958;2023-05-10T08:17:54;14.60;99.90
7192;DHT22;3637;51.494;11.958;2023-05-10T08:20:56;14.80;99.90
7192;DHT22;3637;51.494;11.958;2023-05-10T08:23:58;14.70;99.90
7192;DHT22;3637;51.494;11.958;2023-05-10T08:27:01;14.60;99.90
7192;DHT22;3637;51.494;11.958;2023-05-10T08:30:04;14.60;99.90
7192;DHT22;3637;51.494;11.958;2023-05-10T08:33:06;14.60;99.90
7192;DHT22;3637;51.494;11.958;2023-05-10T08:36:08;15.00;99.90
7192;DHT22;3637;51.494;11.958;2023-05-10T08:39:10;14.60;99.90
7192;DHT22;3637;51.494;11.958;2023-05-10T08:42:16;14.60;99.90
7192;DHT22;3637;51.494;11.958;2023-05-10T08:45:22;14.80;99.90
7192;DHT22;3637;51.494;11.958;2023-05-10T08:48:24;15.80;99.90
7192;DHT22;3637;51.494;11.958;2023-05-10T08:51:27;14.80;99.90
7192;DHT22;3637;51.494;11.958;2023-05-10T08:54:32;14.60;99.90
7192;DHT22;3637;51.494;11.958;2023-05-10T08:57:36;14.70;99.90
7192;DHT22;3637;51.494;11.958;2023-05-10T09:00:38;15.30;99.90
7192;DHT22;3637;51.494;11.958;2023-05-10T09:03:40;15.20;99.90
7192;DHT22;3637;51.494;11.958;2023-05-10T09:06:42;14.80;99.90
7192;DHT22;3637;51.494;11.958;2023-05-10T09:09:44;14.60;99.90
7192;DHT22;3637;51.494;11.958;2023-05-10T09:12:49;14.70;99.90
7192;DHT22;3637;51.494;11.958;2023-05-10T09:15:52;14.50;99.90
7192;DHT22;3637;51.494;11.958;2023-05-10T09:18:54;14.40;99.90
7192;DHT22;3637;51.494;11.958;2023-05-10T09:21:56;15.10;99.90
7192;DHT22;3637;51.494;11.958;2023-05-10T09:25:07;14.80;99.90
7192;DHT22;3637;51.494;11.958;2023-05-10T09:28:11;14.80;99.90
7192;DHT22;3637;51.494;11.958;2023-05-10T09:31:13;14.80;99.90
7192;DHT22;3637;51.494;11.958;2023-05-10T09:34:16;14.70;99.90
7192;DHT22;3637;51.494;11.958;2023-05-10T09:37:29;15.10;99.90
7192;DHT22;3637;51.494;11.958;2023-05-10T09:40:31;14.90;99.90
7192;DHT22;3637;51.494;11.958;2023-05-10T09:43:39;15.10;99.90
7192;DHT22;3637;51.494;11.958;2023-05-10T09:46:41;15.10;99.90
7192;DHT22;3637;51.494;11.958;2023-05-10T09:49:43;15.00;99.90
7192;DHT22;3637;51.494;11.958;2023-05-10T09:52:49;15.30;99.90
7192;DHT22;3637;51.494;11.958;2023-05-10T09:55:51;14.90;99.90
7192;DHT22;3637;51.494;11.958;2023-05-10T09:59:03;15.10;99.90
7192;DHT22;3637;51.494;11.958;2023-05-10T10:02:06;15.20;99.90
7192;DHT22;3637;51.494;11.958;2023-05-10T10:05:08;15.30;99.90
7192;DHT22;3637;51.494;11.958;2023-05-10T10:08:11;15.40;99.90
7192;DHT22;3637;51.494;11.958;2023-05-10T10:11:13;15.40;99.90
7192;DHT22;3637;51.494;11.958;2023-05-10T10:14:17;16.10;99.90
7192;DHT22;3637;51.494;11.958;2023-05-10T10:17:19;15.60;99.90
7192;DHT22;3637;51.494;11.958;2023-05-10T10:20:22;15.60;99.90
7192;DHT22;3637;51.494;11.958;2023-05-10T10:23:26;15.50;99.90
7192;DHT22;3637;51.494;11.958;2023-05-10T10:26:28;15.60;99.90
7192;DHT22;3637;51.494;11.958;2023-05-10T10:29:36;15.50;99.90
7192;DHT22;3637;51.494;11.958;2023-05-10T10:32:55;15.60;99.90
7192;DHT22;3637;51.494;11.958;2023-05-10T10:36:02;15.80;99.90
7192;DHT22;3637;51.494;11.958;2023-05-10T10:39:09;15.60;99.90
7192;DHT22;3637;51.494;11.958;2023-05-10T10:42:11;16.00;99.90
7192;DHT22;3637;51.494;11.958;2023-05-10T10:45:14;16.30;99.90
7192;DHT22;3637;51.494;11.958;2023-05-10T10:48:20;16.20;99.90
7192;DHT22;3637;51.494;11.958;2023-05-10T10:51:23;15.80;99.90
7192;DHT22;3637;51.494;11.958;2023-05-10T10:54:27;15.90;99.90
7192;DHT22;3637;51.494;11.958;2023-05-10T10:57:32;15.90;99.90
7192;DHT22;3637;51.494;11.958;2023-05-10T11:00:37;16.00;99.90
7192;DHT22;3637;51.494;11.958;2023-05-10T11:03:54;16.00;99.90
7192;DHT22;3637;51.494;11.958;2023-05-10T11:07:17;16.00;99.90
7192;DHT22;3637;51.494;11.958;2023-05-10T11:10:19;16.10;99.90
7192;DHT22;3637;51.494;11.958;2023-05-10T11:13:28;16.10;99.90
7192;DHT22;3637;51.494;11.958;2023-05-10T11:16:41;16.10;99.90
7192;DHT22;3637;51.494;11.958;2023-05-10T11:20:06;16.30;99.90
7192;DHT22;3637;51.494;11.958;2023-05-10T11:23:13;16.20;99.90
7192;DHT22;3637;51.494;11.958;2023-05-10T11:26:16;16.20;99.90
7192;DHT22;3637;51.494;11.958;2023-05-10T11:29:18;16.30;99.90
7192;DHT22;3637;51.494;11.958;2023-05-10T11:32:22;16.70;99.90
7192;DHT22;3637;51.494;11.958;2023-05-10T11:35:26;16.80;99.90
7192;DHT22;3637;51.494;11.958;2023-05-10T11:38:28;16.60;99.90
7192;DHT22;3637;51.494;11.958;2023-05-10T11:41:34;16.40;99.90
7192;DHT22;3637;51.494;11.958;2023-05-10T11:44:36;16.50;99.90
7192;DHT22;3637;51.494;11.958;2023-05-10T11:47:39;16.50;99.90
7192;DHT22;3637;51.494;11.958;2023-05-10T11:50:44;16.40;99.90
7192;DHT22;3637;51.494;11.958;2023-05-10T11:53:45;16.40;99.90
7192;DHT22;3637;51.494;11.958;2023-05-10T11:56:47;16.50;99.90
7192;DHT22;3637;51.494;11.958;2023-05-10T11:59:53;16.70;99.90
7192;DHT22;3637;51.494;11.958;2023-05-10T12:02:56;16.40;99.90
7192;DHT22;3637;51.494;11.958;2023-05-10T12:05:59;16.50;99.90
7192;DHT22;3637;51.494;11.958;2023-05-10T12:09:05;16.30;99.90
7192;DHT22;3637;51.494;11.958;2023-05-10T12:12:07;16.20;99.90
7192;DHT22;3637;51.494;11.958;2023-05-10T12:15:16;16.20;99.90
7192;DHT22;3637;51.494;11.958;2023-05-10T12:18:23;16.30;99.90
7192;DHT22;3637;51.494;11.958;2023-05-10T12:21:26;16.00;99.90
7192;DHT22;3637;51.494;11.958;2023-05-10T12:24:28;15.90;99.90
7192;DHT22;3637;51.494;11.958;2023-05-10T12:27:31;16.20;99.90
7192;DHT22;3637;51.494;11.958;2023-05-10T12:30:35;15.90;99.90
7192;DHT22;3637;51.494;11.958;2023-05-10T12:33:40;15.80;99.90
7192;DHT22;3637;51.494;11.958;2023-05-10T12:36:42;16.10;99.90
7192;DHT22;3637;51.494;11.958;2023-05-10T12:39:44;15.80;99.90
7192;DHT22;3637;51.494;11.958;2023-05-10T12:42:47;15.80;99.90
7192;DHT22;3637;51.494;11.958;2023-05-10T12:45:49;16.10;99.90
7192;DHT22;3637;51.494;11.958;2023-05-10T12:48:52;15.80;99.90
7192;DHT22;3637;51.494;11.958;2023-05-10T12:51:55;16.20;99.90
7192;DHT22;3637;51.494;11.958;2023-05-10T12:54:57;15.90;99.90
7192;DHT22;3637;51.494;11.958;2023-05-10T12:57:59;16.00;99.90
7192;DHT22;3637;51.494;11.958;2023-05-10T13:01:01;16.00;99.90
7192;DHT22;3637;51.494;11.958;2023-05-10T13:04:04;16.10;99.90
7192;DHT22;3637;51.494;11.958;2023-05-10T13:07:06;16.50;99.90
7192;DHT22;3637;51.494;11.958;2023-05-10T13:10:07;16.20;99.90
7192;DHT22;3637;51.494;11.958;2023-05-10T13:13:09;16.30;99.90
7192;DHT22;3637;51.494;11.958;2023-05-10T13:16:11;16.30;99.90
7192;DHT22;3637;51.494;11.958;2023-05-10T13:19:15;16.30;99.90
7192;DHT22;3637;51.494;11.958;2023-05-10T13:22:17;16.40;99.90
7192;DHT22;3637;51.494;11.958;2023-05-10T13:25:19;16.40;99.90
7192;DHT22;3637;51.494;11.958;2023-05-10T13:28:20;16.40;99.90
7192;DHT22;3637;51.494;11.958;2023-05-10T13:31:22;16.50;99.90
7192;DHT22;3637;51.494;11.958;2023-05-10T13:34:26;16.50;99.90
7192;DHT22;3637;51.494;11.958;2023-05-10T13:37:27;16.40;99.90
7192;DHT22;3637;51.494;11.958;2023-05-10T13:40:29;16.50;99.90
7192;DHT22;3637;51.494;11.958;2023-05-10T13:43:31;16.50;99.90
7192;DHT22;3637;51.494;11.958;2023-05-10T13:46:33;16.50;99.90
7192;DHT22;3637;51.494;11.958;2023-05-10T13:49:36;16.50;99.90
7192;DHT22;3637;51.494;11.958;2023-05-10T13:52:38;16.50;99.90
7192;DHT22;3637;51.494;11.958;2023-05-10T13:55:40;16.50;99.90
7192;DHT22;3637;51.494;11.958;2023-05-10T13:58:42;16.60;99.90
7192;DHT22;3637;51.494;11.958;2023-05-10T14:01:44;16.60;99.90
7192;DHT22;3637;51.494;11.958;2023-05-10T14:04:47;16.50;99.90
7192;DHT22;3637;51.494;11.958;2023-05-10T14:07:50;16.50;99.90
7192;DHT22;3637;51.494;11.958;2023-05-10T14:10:52;16.40;99.90
7192;DHT22;3637;51.494;11.958;2023-05-10T14:13:53;16.60;99.90
7192;DHT22;3637;51.494;11.958;2023-05-10T14:16:55;16.60;99.90
7192;DHT22;3637;51.494;11.958;2023-05-10T14:19:58;16.50;99.90
7192;DHT22;3637;51.494;11.958;2023-05-10T14:23:00;16.60;99.90
7192;DHT22;3637;51.494;11.958;2023-05-10T14:26:02;16.50;99.90
7192;DHT22;3637;51.494;11.958;2023-05-10T14:29:04;16.70;99.90
7192;DHT22;3637;51.494;11.958;2023-05-10T14:32:06;16.50;99.90
7192;DHT22;3637;51.494;11.958;2023-05-10T14:35:09;16.50;99.90
7192;DHT22;3637;51.494;11.958;2023-05-10T14:38:11;16.50;99.90
7192;DHT22;3637;51.494;11.958;2023-05-10T14:41:13;16.50;99.90
7192;DHT22;3637;51.494;11.958;2023-05-10T14:44:15;16.50;99.90
7192;DHT22;3637;51.494;11.958;2023-05-10T14:47:17;16.70;99.90
7192;DHT22;3637;51.494;11.958;2023-05-10T14:50:20;16.60;99.90
7192;DHT22;3637;51.494;11.958;2023-05-10T14:53:22;16.60;99.90
7192;DHT22;3637;51.494;11.958;2023-05-10T14:56:24;16.60;99.90
7192;DHT22;3637;51.494;11.958;2023-05-10T14:59:26;16.60;99.90
7192;DHT22;3637;51.494;11.958;2023-05-10T15:02:28;16.60;99.90
7192;DHT22;3637;51.494;11.958;2023-05-10T15:05:31;16.70;99.90
7192;DHT22;3637;51.494;11.958;2023-05-10T15:08:33;16.50;99.90
7192;DHT22;3637;51.494;11.958;2023-05-10T15:11:35;16.50;99.90
7192;DHT22;3637;51.494;11.958;2023-05-10T15:14:37;17.00;99.90
7192;DHT22;3637;51.494;11.958;2023-05-10T15:17:39;16.60;99.90
7192;DHT22;3637;51.494;11.958;2023-05-10T15:20:42;16.60;99.90
7192;DHT22;3637;51.494;11.958;2023-05-10T15:23:44;16.30;99.90
7192;DHT22;3637;51.494;11.958;2023-05-10T15:26:47;17.00;99.90
7192;DHT22;3637;51.494;11.958;2023-05-10T15:29:49;16.70;99.90
7192;DHT22;3637;51.494;11.958;2023-05-10T15:32:51;16.60;99.90
7192;DHT22;3637;51.494;11.958;2023-05-10T15:35:54;17.20;99.90
7192;DHT22;3637;51.494;11.958;2023-05-10T15:38:56;16.90;99.90
7192;DHT22;3637;51.494;11.958;2023-05-10T15:42:00;16.80;99.90
7192;DHT22;3637;51.494;11.958;2023-05-10T15:45:04;16.70;99.90
7192;DHT22;3637;51.494;11.958;2023-05-10T15:48:06;16.70;99.90
7192;DHT22;3637;51.494;11.958;2023-05-10T15:51:09;16.80;99.90
7192;DHT22;3637;51.494;11.958;2023-05-10T15:54:11;17.20;99.90
7192;DHT22;3637;51.494;11.958;2023-05-10T15:57:13;17.00;99.90
7192;DHT22;3637;51.494;11.958;2023-05-10T16:00:16;16.90;99.90
7192;DHT22;3637;51.494;11.958;2023-05-10T16:03:18;16.80;99.90
7192;DHT22;3637;51.494;11.958;2023-05-10T16:06:21;16.70;99.90
7192;DHT22;3637;51.494;11.958;2023-05-10T16:09:51;17.00;99.90
7192;DHT22;3637;51.494;11.958;2023-05-10T16:13:16;16.30;99.90
7192;DHT22;3637;51.494;11.958;2023-05-10T16:16:20;16.60;99.90
7192;DHT22;3637;51.494;11.958;2023-05-10T16:19:21;16.50;99.90
7192;DHT22;3637;51.494;11.958;2023-05-10T16:22:25;16.50;99.90
7192;DHT22;3637;51.494;11.958;2023-05-10T16:25:28;16.50;99.90
7192;DHT22;3637;51.494;11.958;2023-05-10T16:28:30;16.50;99.90
7192;DHT22;3637;51.494;11.958;2023-05-10T16:31:32;16.90;99.90
7192;DHT22;3637;51.494;11.958;2023-05-10T16:34:34;16.90;99.90
7192;DHT22;3637;51.494;11.958;2023-05-10T16:37:37;16.30;99.90
7192;DHT22;3637;51.494;11.958;2023-05-10T16:40:39;16.30;99.90
7192;DHT22;3637;51.494;11.958;2023-05-10T16:43:41;16.10;99.90
7192;DHT22;3637;51.494;11.958;2023-05-10T16:46:43;16.20;99.90
7192;DHT22;3637;51.494;11.958;2023-05-10T16:49:45;16.20;99.90
7192;DHT22;3637;51.494;11.958;2023-05-10T16:52:48;16.30;99.90
7192;DHT22;3637;51.494;11.958;2023-05-10T16:55:50;16.20;99.90
7192;DHT22;3637;51.494;11.958;2023-05-10T16:58:52;16.20;99.90
7192;DHT22;3637;51.494;11.958;2023-05-10T17:01:53;17.60;99.90
7192;DHT22;3637;51.494;11.958;2023-05-10T17:04:55;16.80;99.90
7192;DHT22;3637;51.494;11.958;2023-05-10T17:08:02;16.00;99.90
7192;DHT22;3637;51.494;11.958;2023-05-10T17:11:38;16.00;99.90
7192;DHT22;3637;51.494;11.958;2023-05-10T17:14:50;15.90;99.90
7192;DHT22;3637;51.494;11.958;2023-05-10T17:17:51;16.00;99.90
7192;DHT22;3637;51.494;11.958;2023-05-10T17:20:53;16.00;99.90
7192;DHT22;3637;51.494;11.958;2023-05-10T17:23:56;16.10;99.90
7192;DHT22;3637;51.494;11.958;2023-05-10T17:26:58;17.10;99.90
7192;DHT22;3637;51.494;11.958;2023-05-10T17:30:03;16.00;99.90
7192;DHT22;3637;51.494;11.958;2023-05-10T17:33:05;15.90;99.90
7192;DHT22;3637;51.494;11.958;2023-05-10T17:36:07;16.30;99.90
7192;DHT22;3637;51.494;11.958;2023-05-10T17:39:10;15.80;99.90
7192;DHT22;3637;51.494;11.958;2023-05-10T17:42:12;15.80;99.90
7192;DHT22;3637;51.494;11.958;2023-05-10T17:45:17;15.80;99.90
7192;DHT22;3637;51.494;11.958;2023-05-10T17:48:18;15.80;99.90
7192;DHT22;3637;51.494;11.958;2023-05-10T17:51:20;16.00;99.90
7192;DHT22;3637;51.494;11.958;2023-05-10T17:54:23;15.80;99.90
7192;DHT22;3637;51.494;11.958;2023-05-10T17:57:25;15.90;99.90
7192;DHT22;3637;51.494;11.958;2023-05-10T18:00:27;15.80;99.90
7192;DHT22;3637;51.494;11.958;2023-05-10T18:03:29;15.80;99.90
7192;DHT22;3637;51.494;11.958;2023-05-10T18:06:34;15.80;99.90
7192;DHT22;3637;51.494;11.958;2023-05-10T18:09:38;16.30;99.90
7192;DHT22;3637;51.494;11.958;2023-05-10T18:12:39;15.80;99.90
7192;DHT22;3637;51.494;11.958;2023-05-10T18:15:41;15.70;99.90
7192;DHT22;3637;51.494;11.958;2023-05-10T18:18:43;16.10;99.90
7192;DHT22;3637;51.494;11.958;2023-05-10T18:21:45;15.70;99.90
7192;DHT22;3637;51.494;11.958;2023-05-10T18:24:48;15.70;99.90
7192;DHT22;3637;51.494;11.958;2023-05-10T18:27:50;15.70;99.90
7192;DHT22;3637;51.494;11.958;2023-05-10T18:30:52;16.00;99.90
7192;DHT22;3637;51.494;11.958;2023-05-10T18:33:53;15.50;99.90
7192;DHT22;3637;51.494;11.958;2023-05-10T18:36:55;15.70;99.90
7192;DHT22;3637;51.494;11.958;2023-05-10T18:39:58;15.60;99.90
7192;DHT22;3637;51.494;11.958;2023-05-10T18:43:01;15.60;99.90
7192;DHT22;3637;51.494;11.958;2023-05-10T18:46:03;15.60;99.90
7192;DHT22;3637;51.494;11.958;2023-05-10T18:49:05;15.70;99.90
7192;DHT22;3637;51.494;11.958;2023-05-10T18:52:07;15.50;99.90
7192;DHT22;3637;51.494;11.958;2023-05-10T18:55:11;15.50;99.90
7192;DHT22;3637;51.494;11.958;2023-05-10T18:58:13;15.50;99.90
7192;DHT22;3637;51.494;11.958;2023-05-10T19:01:15;15.50;99.90
7192;DHT22;3637;51.494;11.958;2023-05-10T19:04:17;15.40;99.90
7192;DHT22;3637;51.494;11.958;2023-05-10T19:07:19;15.40;99.90
7192;DHT22;3637;51.494;11.958;2023-05-10T19:10:22;15.50;99.90
7192;DHT22;3637;51.494;11.958;2023-05-10T19:13:24;15.40;99.90
7192;DHT22;3637;51.494;11.958;2023-05-10T19:16:27;15.30;99.90
7192;DHT22;3637;51.494;11.958;2023-05-10T19:19:30;15.60;99.90
7192;DHT22;3637;51.494;11.958;2023-05-10T19:22:31;15.70;99.90
7192;DHT22;3637;51.494;11.958;2023-05-10T19:25:35;15.20;99.90
7192;DHT22;3637;51.494;11.958;2023-05-10T19:28:38;15.60;99.90
7192;DHT22;3637;51.494;11.958;2023-05-10T19:31:40;15.50;99.90
7192;DHT22;3637;51.494;11.958;2023-05-10T19:34:42;15.40;99.90
7192;DHT22;3637;51.494;11.958;2023-05-10T19:37:43;15.20;99.90
7192;DHT22;3637;51.494;11.958;2023-05-10T19:40:48;15.40;99.90